Time;durP1;ratioP1;P1;durP2;ratioP2;P2;SDS_P1;SDS_P2;PMS_P1;PMS_P2;Temp;Humidity;BMP_temperature;BMP_pressure;BME280_temperature;BME280_humidity;BME280_pressure;Samples;Min_cycle;Max_cycle;Signal;HPM_P1;HPM_P2
2022/01/26 00:07:32;;;;;;;56.70;29.67;;;-1.50;99.90;;;;;;5072783;28;20106;-78
2022/01/26 00:09:58;;;;;;;;;;;-1.60;99.90;;;;;;5071356;28;20033;-79
2022/01/26 00:12:24;;;;;;;63.38;28.50;;;-1.60;99.90;;;;;;5071257;28;20368;-79
2022/01/26 00:14:49;;;;;;;;;;;-1.60;99.90;;;;;;5071107;28;20040;-79
2022/01/26 00:17:15;;;;;;;64.15;31.20;;;-1.60;99.90;;;;;;5070158;28;19905;-78
2022/01/26 00:19:51;;;;;;;;;;;-1.60;99.90;;;;;;5070400;28;20051;-79
2022/01/26 00:22:37;;;;;;;70.20;31.27;;;-1.60;99.90;;;;;;5071071;28;20007;-79
2022/01/26 00:25:59;;;;;;;64.28;30.33;;;-1.60;99.90;;;;;;5070614;28;20044;-79
2022/01/26 00:38:42;;;;;;;59.30;31.88;;;-1.80;99.90;;;;;;5070273;28;20120;-78
2022/01/26 00:41:18;;;;;;;61.45;30.27;;;-1.90;99.90;;;;;;5068768;28;20055;-77
2022/01/26 00:43:50;;;;;;;58.72;29.25;;;-2.00;99.90;;;;;;5069788;28;20111;-78
2022/01/26 00:46:17;;;;;;;63.53;30.02;;;-2.20;99.90;;;;;;5068707;28;20558;-77
2022/01/26 00:48:43;;;;;;;58.47;30.20;;;-2.00;99.90;;;;;;5069043;28;20515;-78
2022/01/26 00:51:10;;;;;;;61.05;30.15;;;-2.20;99.90;;;;;;5070896;28;20439;-77
2022/01/26 00:53:41;;;;;;;63.10;30.33;;;-2.30;99.90;;;;;;5068205;28;20031;-77
2022/01/26 00:56:07;;;;;;;59.20;28.70;;;-2.40;99.90;;;;;;5068307;28;20032;-77
2022/01/26 00:58:33;;;;;;;;;;;-2.40;99.90;;;;;;5069949;28;20021;-78
2022/01/26 01:01:01;;;;;;;71.50;32.55;;;-2.50;99.90;;;;;;5067816;28;19927;-77
2022/01/26 01:03:28;;;;;;;68.38;30.80;;;-2.50;99.90;;;;;;5067712;28;20032;-78
2022/01/26 01:06:10;;;;;;;70.57;32.67;;;-2.60;99.90;;;;;;5067912;28;20032;-78
2022/01/26 01:08:35;;;;;;;67.55;31.90;;;-2.60;99.90;;;;;;5069396;28;20056;-78
2022/01/26 01:11:01;;;;;;;;;;;-2.70;99.90;;;;;;5069785;28;20056;-78
2022/01/26 01:13:37;;;;;;;65.50;32.92;;;-2.70;99.90;;;;;;5067756;28;19962;-78
2022/01/26 01:16:05;;;;;;;61.25;31.70;;;-2.80;99.90;;;;;;5067963;28;20471;-77
2022/01/26 01:26:37;;;;;;;62.17;30.50;;;-3.10;99.90;;;;;;5068459;28;19904;-78
2022/01/26 01:31:47;;;;;;;66.63;31.13;;;-3.20;99.90;;;;;;5069274;28;20086;-78
2022/01/26 01:34:15;;;;;;;63.00;32.55;;;-3.30;99.90;;;;;;5068174;28;20861;-79
2022/01/26 01:36:44;;;;;;;73.60;36.20;;;-3.40;99.90;;;;;;5068643;28;20489;-78
2022/01/26 01:39:10;;;;;;;76.00;35.20;;;-3.40;99.90;;;;;;5069088;28;20028;-78
2022/01/26 01:41:38;;;;;;;79.25;36.88;;;-3.50;99.90;;;;;;5068949;28;20032;-78
2022/01/26 01:44:08;;;;;;;77.43;34.65;;;-3.40;99.90;;;;;;5069718;28;20100;-76
2022/01/26 01:46:34;;;;;;;75.25;35.67;;;-3.40;99.90;;;;;;5067116;28;20029;-79
2022/01/26 01:49:02;;;;;;;70.82;30.92;;;-3.50;99.90;;;;;;5070456;28;20070;-78
2022/01/26 01:51:33;;;;;;;62.38;30.67;;;-3.50;99.90;;;;;;5069442;28;20132;-79
2022/01/26 01:53:59;;;;;;;66.47;31.30;;;-3.60;99.90;;;;;;5069580;28;20066;-79
2022/01/26 01:56:26;;;;;;;75.22;33.92;;;-3.70;99.90;;;;;;5069202;28;20182;-78
2022/01/26 01:58:59;;;;;;;67.97;30.73;;;-3.80;99.90;;;;;;5069870;28;20108;-78
2022/01/26 02:01:26;;;;;;;74.50;32.80;;;-3.90;99.90;;;;;;5068950;28;20448;-78
2022/01/26 02:03:54;;;;;;;63.35;31.10;;;-4.00;99.90;;;;;;5068482;28;20036;-78
2022/01/26 02:06:20;;;;;;;63.53;30.48;;;-4.00;99.90;;;;;;5068455;28;20103;-78
2022/01/26 02:08:45;;;;;;;;;;;-4.10;99.90;;;;;;5068474;28;20507;-78
2022/01/26 02:11:13;;;;;;;63.50;28.88;;;-4.20;99.90;;;;;;5069556;28;19908;-79
2022/01/26 02:13:49;;;;;;;59.13;28.80;;;-4.20;99.90;;;;;;5070394;28;20013;-79
2022/01/26 02:21:59;;;;;;;67.72;31.90;;;-4.30;99.90;;;;;;5072975;28;20067;-78
2022/01/26 02:52:40;;;;;;;67.75;31.63;;;-4.30;99.90;;;;;;5068349;28;20031;-77
2022/01/26 03:00:00;;;;;;;73.60;35.38;;;-4.50;99.90;;;;;;5069106;28;20044;-79
2022/01/26 03:02:42;;;;;;;64.05;31.33;;;-4.50;99.90;;;;;;5066460;28;20040;-78
2022/01/26 03:05:09;;;;;;;65.28;31.40;;;-4.60;99.90;;;;;;5066140;28;20028;-77
2022/01/26 03:10:06;;;;;;;78.40;32.25;;;-4.60;99.90;;;;;;5067177;28;20024;-78
2022/01/26 03:12:41;;;;;;;63.92;31.00;;;-4.70;99.90;;;;;;5066090;28;20092;-77
2022/01/26 03:15:15;;;;;;;74.30;30.98;;;-4.70;99.90;;;;;;5067284;28;20028;-77
2022/01/26 03:20:11;;;;;;;81.72;34.45;;;-4.70;99.90;;;;;;5067423;28;20059;-78
2022/01/26 03:31:10;;;;;;;80.40;35.47;;;-4.80;99.90;;;;;;5068644;28;20490;-78
2022/01/26 03:33:45;;;;;;;77.95;34.28;;;-4.80;99.90;;;;;;5068062;28;20520;-78
2022/01/26 03:36:11;;;;;;;81.13;35.28;;;-4.80;99.90;;;;;;5069132;28;20468;-78
2022/01/26 03:38:44;;;;;;;84.22;39.65;;;-4.90;99.90;;;;;;5071265;28;20049;-78
2022/01/26 03:43:54;;;;;;;104.93;43.95;;;-4.90;99.90;;;;;;5071993;28;20027;-78
2022/01/26 03:46:20;;;;;;;83.13;36.70;;;-5.00;99.90;;;;;;5069938;28;20412;-77
2022/01/26 03:48:45;;;;;;;74.60;32.30;;;-5.00;99.90;;;;;;5069861;28;20674;-79
2022/01/26 03:51:11;;;;;;;83.43;34.67;;;-5.00;99.90;;;;;;5075178;28;20056;-76
2022/01/26 03:53:37;;;;;;;79.25;35.67;;;-5.00;99.90;;;;;;5075862;28;20043;-78
2022/01/26 03:56:02;;;;;;;;;;;-5.00;99.90;;;;;;5070914;28;20448;-79
2022/01/26 03:58:28;;;;;;;76.03;34.00;;;-5.10;99.90;;;;;;5070280;28;20318;-78
2022/01/26 04:00:54;;;;;;;;;;;-5.10;99.90;;;;;;5070393;28;20036;-78
2022/01/26 04:03:19;;;;;;;90.90;39.75;;;-5.10;99.90;;;;;;5071655;28;19909;-78
2022/01/26 04:05:45;;;;;;;91.32;41.60;;;-5.10;99.90;;;;;;5071714;28;20033;-78
2022/01/26 04:08:17;;;;;;;110.15;50.83;;;-5.20;99.90;;;;;;5071293;28;20028;-79
2022/01/26 04:13:11;;;;;;;80.95;37.25;;;-5.20;99.90;;;;;;5072128;28;20394;-78
2022/01/26 04:15:38;;;;;;;83.25;36.90;;;-5.20;99.90;;;;;;5070691;28;20029;-79
2022/01/26 04:18:07;;;;;;;79.78;34.95;;;-5.20;99.90;;;;;;5069922;28;20033;-78
2022/01/26 04:20:38;;;;;;;80.10;36.95;;;-5.20;99.90;;;;;;5071766;28;20528;-78
2022/01/26 04:23:19;;;;;;;71.47;33.42;;;-5.20;99.90;;;;;;5071056;28;20028;-78
2022/01/26 04:25:47;;;;;;;88.10;38.45;;;-5.20;99.90;;;;;;5071062;28;20594;-78
2022/01/26 04:28:20;;;;;;;84.30;36.22;;;-5.20;99.90;;;;;;5071949;28;20442;-79
2022/01/26 04:30:45;;;;;;;87.20;37.08;;;-5.30;99.90;;;;;;5071130;28;20063;-78
2022/01/26 04:33:11;;;;;;;92.85;40.28;;;-5.30;99.90;;;;;;5071612;28;20075;-78
2022/01/26 04:35:42;;;;;;;101.95;46.63;;;-5.30;99.90;;;;;;5071688;28;20032;-80
2022/01/26 04:40:40;;;;;;;141.35;55.38;;;-5.40;99.90;;;;;;5072976;28;20036;-78
2022/01/26 04:43:13;;;;;;;117.78;51.38;;;-5.50;99.90;;;;;;5070898;28;20039;-78
2022/01/26 04:45:39;;;;;;;102.47;44.65;;;-5.50;99.90;;;;;;5073049;28;20020;-79
2022/01/26 04:48:05;;;;;;;119.40;51.90;;;-5.50;99.90;;;;;;5070743;28;20031;-78
2022/01/26 04:50:30;;;;;;;134.25;55.03;;;-5.50;99.90;;;;;;5072874;28;20029;-80
2022/01/26 04:52:56;;;;;;;135.30;54.38;;;-5.50;99.90;;;;;;5073440;28;20033;-79
2022/01/26 04:55:21;;;;;;;107.07;46.60;;;-5.50;99.90;;;;;;5072313;28;20481;-79
2022/01/26 04:57:47;;;;;;;89.18;37.38;;;-5.50;99.90;;;;;;5070525;28;20470;-78
2022/01/26 05:00:13;;;;;;;113.40;45.10;;;-5.50;99.90;;;;;;5069937;28;20496;-78
2022/01/26 05:02:39;;;;;;;134.18;48.13;;;-5.40;99.90;;;;;;5072446;28;20061;-78
2022/01/26 05:05:04;;;;;;;;;;;-5.30;99.90;;;;;;5070333;28;20386;-78
2022/01/26 05:07:30;;;;;;;107.57;43.22;;;-5.20;99.90;;;;;;5067852;28;19912;-77
2022/01/26 05:09:56;;;;;;;93.38;39.47;;;-5.10;99.90;;;;;;5069329;28;20086;-77
2022/01/26 05:12:22;;;;;;;;;;;-5.10;99.90;;;;;;5069991;28;20640;-77
2022/01/26 05:14:49;;;;;;;111.18;49.70;;;-4.90;99.90;;;;;;5069304;28;19919;-77
2022/01/26 05:17:18;;;;;;;86.28;37.88;;;-4.70;99.90;;;;;;5069430;28;20123;-77
2022/01/26 05:19:44;;;;;;;89.80;38.85;;;-4.60;99.90;;;;;;5069548;28;20135;-78
2022/01/26 05:22:10;;;;;;;83.10;38.53;;;-4.50;99.90;;;;;;5072918;28;20453;-77
2022/01/26 05:24:35;;;;;;;82.72;38.85;;;-4.50;99.90;;;;;;5071675;28;20301;-78
2022/01/26 05:27:01;;;;;;;;;;;-4.50;99.90;;;;;;5073786;28;20107;-79
2022/01/26 05:29:27;;;;;;;121.30;48.05;;;-4.40;99.90;;;;;;5068692;28;20348;-78
2022/01/26 05:31:52;;;;;;;121.00;52.95;;;-4.50;99.90;;;;;;5068898;28;20104;-78
2022/01/26 05:34:18;;;;;;;;;;;-4.40;99.90;;;;;;5070482;28;20032;-79
2022/01/26 05:36:43;;;;;;;117.72;50.25;;;-4.50;99.90;;;;;;5070162;28;19904;-78
2022/01/26 05:39:09;;;;;;;;;;;-4.50;99.90;;;;;;5069580;28;20025;-79
2022/01/26 05:41:37;;;;;;;121.10;52.80;;;-4.50;99.90;;;;;;5069761;28;19916;-76
2022/01/26 05:44:03;;;;;;;121.72;53.67;;;-4.60;99.90;;;;;;5068414;28;20029;-76
2022/01/26 05:46:49;;;;;;;125.88;54.25;;;-4.60;99.90;;;;;;5068393;28;20451;-77
2022/01/26 05:49:17;;;;;;;110.35;50.65;;;-4.70;99.90;;;;;;5068473;28;20029;-75
2022/01/26 05:51:46;;;;;;;102.38;47.63;;;-4.70;99.90;;;;;;5068420;28;20040;-76
2022/01/26 05:54:11;;;;;;;131.13;56.25;;;-4.80;99.90;;;;;;5070156;28;20036;-77
2022/01/26 05:56:38;;;;;;;109.28;49.83;;;-4.70;99.90;;;;;;5069758;28;20075;-77
2022/01/26 05:59:04;;;;;;;98.10;41.75;;;-4.70;99.90;;;;;;5068363;28;20021;-76
2022/01/26 06:01:30;;;;;;;93.32;41.95;;;-4.70;99.90;;;;;;5066207;28;20029;-76
2022/01/26 06:03:55;;;;;;;;;;;-4.70;99.90;;;;;;5067856;28;20127;-77
2022/01/26 06:06:21;;;;;;;93.40;39.63;;;-4.70;99.90;;;;;;5067763;28;19955;-77
2022/01/26 06:08:47;;;;;;;97.72;42.95;;;-4.70;99.90;;;;;;5067570;28;20180;-76
2022/01/26 06:11:12;;;;;;;86.75;42.15;;;-4.70;99.90;;;;;;5068958;28;20035;-77
2022/01/26 06:13:38;;;;;;;;;;;-4.70;99.90;;;;;;5066959;28;20039;-76
2022/01/26 06:16:04;;;;;;;128.98;56.35;;;-4.50;99.90;;;;;;5067411;28;19908;-76
2022/01/26 06:18:30;;;;;;;121.47;53.13;;;-4.50;99.90;;;;;;5066615;28;20508;-76
2022/01/26 06:20:55;;;;;;;130.35;53.42;;;-4.50;99.90;;;;;;5067249;28;20039;-76
2022/01/26 06:23:24;;;;;;;;;;;-4.40;99.90;;;;;;5067707;28;20021;-76
2022/01/26 06:25:55;;;;;;;109.18;47.72;;;-4.40;99.90;;;;;;5066988;28;19904;-76
2022/01/26 06:28:23;;;;;;;103.20;46.85;;;-4.40;99.90;;;;;;5068188;28;20017;-76
2022/01/26 06:30:55;;;;;;;118.63;49.05;;;-4.40;99.90;;;;;;5066132;28;20101;-76
2022/01/26 06:33:21;;;;;;;120.80;50.85;;;-4.30;99.90;;;;;;5067058;28;20017;-76
2022/01/26 06:35:47;;;;;;;130.45;54.05;;;-4.30;99.90;;;;;;5067142;28;20021;-76
2022/01/26 06:38:15;;;;;;;139.73;61.22;;;-4.20;99.90;;;;;;5068567;28;20040;-76
2022/01/26 06:40:40;;;;;;;166.18;65.80;;;-4.10;99.90;;;;;;5066782;28;20488;-76
2022/01/26 06:43:11;;;;;;;;;;;-4.00;99.90;;;;;;5068621;28;20146;-76
2022/01/26 06:45:44;;;;;;;162.50;59.40;;;-3.90;99.90;;;;;;5073351;28;20281;-76
2022/01/26 06:50:55;;;;;;;147.75;49.97;;;-3.80;99.90;;;;;;5074607;28;20109;-76
2022/01/26 06:53:21;;;;;;;160.95;55.42;;;-3.80;99.90;;;;;;5077278;28;20047;-77
2022/01/26 06:55:47;;;;;;;;;;;-3.80;99.90;;;;;;5076046;28;20040;-77
2022/01/26 06:58:12;;;;;;;214.68;53.95;;;-3.70;99.90;;;;;;5071174;28;20432;-77
2022/01/26 07:00:38;;;;;;;225.77;62.53;;;-3.70;99.90;;;;;;5068511;28;20037;-77
2022/01/26 07:03:04;;;;;;;;;;;-3.70;99.90;;;;;;5068367;28;20409;-77
2022/01/26 07:05:29;;;;;;;172.85;53.42;;;-3.70;99.90;;;;;;5067990;28;19908;-77
2022/01/26 07:07:55;;;;;;;;;;;-3.70;99.90;;;;;;5067792;28;20029;-78
2022/01/26 07:10:21;;;;;;;223.98;74.88;;;-3.60;99.90;;;;;;5069020;28;19904;-78
2022/01/26 07:12:46;;;;;;;;;;;-3.50;99.90;;;;;;5068495;28;20195;-77
2022/01/26 07:23:53;;;;;;;149.13;50.17;;;-3.20;99.90;;;;;;5069586;28;20053;-76
2022/01/26 07:26:18;;;;;;;134.43;42.85;;;-3.20;99.90;;;;;;5068199;28;20327;-77
2022/01/26 07:28:44;;;;;;;;;;;-3.10;99.90;;;;;;5069723;28;20032;-77
2022/01/26 07:31:10;;;;;;;121.50;38.03;;;-3.10;99.90;;;;;;5068509;28;20050;-77
2022/01/26 07:33:38;;;;;;;95.93;34.67;;;-3.00;99.90;;;;;;5068357;28;20032;-78
2022/01/26 07:36:04;;;;;;;97.35;38.53;;;-3.00;99.90;;;;;;5070433;28;20043;-77
2022/01/26 07:38:31;;;;;;;103.72;43.08;;;-2.90;99.90;;;;;;5068786;28;20032;-77
2022/01/26 07:40:56;;;;;;;132.60;51.30;;;-2.90;99.90;;;;;;5068132;28;20045;-77
2022/01/26 07:43:22;;;;;;;;;;;-2.70;99.90;;;;;;5076070;28;20060;-77
2022/01/26 07:45:48;;;;;;;157.93;54.70;;;-2.70;99.90;;;;;;5076741;28;19912;-78
2022/01/26 07:48:13;;;;;;;;;;;-2.70;99.90;;;;;;5070676;28;20111;-77
2022/01/26 07:50:39;;;;;;;194.98;83.97;;;-2.70;99.90;;;;;;5067521;28;19908;-77
2022/01/26 07:53:05;;;;;;;;;;;-2.50;99.90;;;;;;5067174;28;20024;-78
2022/01/26 07:55:31;;;;;;;125.95;55.85;;;-2.50;99.90;;;;;;5068076;28;19911;-79
2022/01/26 07:57:57;;;;;;;83.72;36.80;;;-2.40;99.90;;;;;;5067314;28;20059;-79
2022/01/26 08:00:24;;;;;;;69.30;34.25;;;-2.30;99.90;;;;;;5066839;28;20041;-79
2022/01/26 08:02:50;;;;;;;92.88;37.22;;;-2.30;99.90;;;;;;5067731;28;20027;-79
2022/01/26 08:05:15;;;;;;;;;;;-2.20;99.90;;;;;;5067755;28;20028;-79
2022/01/26 08:07:41;;;;;;;104.93;43.63;;;-2.10;99.90;;;;;;5066460;28;20377;-79
2022/01/26 08:10:08;;;;;;;;;;;-1.90;99.90;;;;;;5068038;28;20094;-80
2022/01/26 08:12:34;;;;;;;119.75;44.60;;;-1.80;99.90;;;;;;5068692;28;19915;-79
2022/01/26 08:14:59;;;;;;;;;;;-1.70;99.90;;;;;;5067080;28;20721;-79
2022/01/26 08:17:25;;;;;;;113.40;47.10;;;-1.60;99.90;;;;;;5068364;28;19908;-79
2022/01/26 08:19:55;;;;;;;;;;;-1.40;99.90;;;;;;5067253;28;20048;-79
2022/01/26 08:22:23;;;;;;;111.63;46.40;;;-1.40;99.90;;;;;;5070492;28;20345;-80
2022/01/26 08:24:50;;;;;;;147.57;61.83;;;-1.10;99.90;;;;;;5074193;28;20075;-80
2022/01/26 08:27:18;;;;;;;139.52;55.08;;;-0.90;99.90;;;;;;5071182;28;20024;-80
2022/01/26 08:29:48;;;;;;;139.80;58.67;;;-0.80;99.90;;;;;;5070874;28;20044;-79
2022/01/26 08:32:14;;;;;;;181.95;74.63;;;-0.70;99.90;;;;;;5070983;28;20488;-80
2022/01/26 08:34:40;;;;;;;;;;;-0.50;99.90;;;;;;5072367;28;20017;-78
2022/01/26 08:37:07;;;;;;;394.52;146.18;;;-0.40;99.90;;;;;;5071550;28;19916;-79
2022/01/26 08:39:33;;;;;;;139.18;57.78;;;-0.30;99.90;;;;;;5071268;28;20822;-79
2022/01/26 08:41:59;;;;;;;;;;;-0.30;99.90;;;;;;5072089;28;20040;-79
2022/01/26 08:44:24;;;;;;;427.85;136.18;;;-0.20;99.90;;;;;;5070903;28;19908;-78
2022/01/26 08:46:51;;;;;;;;;;;-0.20;99.90;;;;;;5071229;28;20039;-79
2022/01/26 08:49:17;;;;;;;123.35;49.83;;;-0.20;99.90;;;;;;5070837;28;19916;-79
2022/01/26 08:51:42;;;;;;;;;;;-0.20;99.90;;;;;;5071980;28;20025;-79
2022/01/26 08:54:10;;;;;;;160.77;57.05;;;-0.20;99.90;;;;;;5071986;28;19908;-79
2022/01/26 08:56:36;;;;;;;252.88;84.13;;;-0.20;99.90;;;;;;5072598;28;20063;-79
2022/01/26 08:59:02;;;;;;;;;;;-0.10;99.90;;;;;;5071752;28;20136;-79
2022/01/26 09:01:28;;;;;;;98.53;41.58;;;-0.10;99.90;;;;;;5070975;28;19916;-78
2022/01/26 09:03:53;;;;;;;;;;;0.00;99.90;;;;;;5071333;28;20071;-77
2022/01/26 09:06:19;;;;;;;271.38;98.10;;;0.10;99.90;;;;;;5071971;28;19951;-80
2022/01/26 09:08:50;;;;;;;;;;;0.20;99.90;;;;;;5070781;28;20094;-78
2022/01/26 09:11:20;;;;;;;179.10;68.13;;;0.30;99.90;;;;;;5069882;28;19917;-79
2022/01/26 09:13:47;;;;;;;99.25;41.72;;;0.30;99.90;;;;;;5069515;28;20033;-79
2022/01/26 09:16:18;;;;;;;95.88;36.83;;;0.30;99.90;;;;;;5069895;28;20025;-79
2022/01/26 09:18:50;;;;;;;91.57;36.53;;;0.30;99.90;;;;;;5069109;28;20042;-79
2022/01/26 09:21:16;;;;;;;99.13;40.92;;;0.40;99.90;;;;;;5069694;28;20562;-80
2022/01/26 09:23:42;;;;;;;102.32;40.42;;;0.40;99.90;;;;;;5069705;28;20060;-77
2022/01/26 09:26:07;;;;;;;;;;;0.40;99.90;;;;;;5069981;28;20602;-77
2022/01/26 09:28:33;;;;;;;87.95;35.03;;;0.40;99.90;;;;;;5069781;28;20040;-77
2022/01/26 09:30:59;;;;;;;;;;;0.50;99.90;;;;;;5070687;28;20481;-77
2022/01/26 09:33:24;;;;;;;84.00;36.08;;;0.50;99.90;;;;;;5069910;28;19943;-78
2022/01/26 09:35:50;;;;;;;;;;;0.50;99.90;;;;;;5070765;28;20035;-77
2022/01/26 09:38:17;;;;;;;91.53;37.13;;;0.50;99.90;;;;;;5071196;28;19908;-77
2022/01/26 09:40:43;;;;;;;94.47;34.55;;;0.50;99.90;;;;;;5069915;28;20131;-77
2022/01/26 09:43:10;;;;;;;85.55;35.05;;;0.60;99.90;;;;;;5069481;28;20026;-78
2022/01/26 09:45:36;;;;;;;74.05;31.88;;;0.60;99.90;;;;;;5070087;28;20036;-78
2022/01/26 09:48:03;;;;;;;91.68;37.38;;;0.70;99.90;;;;;;5070654;28;20050;-78
2022/01/26 09:50:29;;;;;;;81.22;34.97;;;0.70;99.90;;;;;;5071210;28;20039;-77
2022/01/26 09:52:56;;;;;;;;;;;0.80;99.90;;;;;;5074231;28;20020;-79
2022/01/26 09:55:22;;;;;;;85.63;36.75;;;0.80;99.90;;;;;;5076022;28;19908;-78
2022/01/26 09:57:47;;;;;;;;;;;0.90;99.90;;;;;;5071337;28;20484;-78
2022/01/26 10:00:14;;;;;;;93.07;35.47;;;0.90;99.90;;;;;;5069696;28;19923;-79
2022/01/26 10:02:43;;;;;;;96.03;40.08;;;1.00;99.90;;;;;;5070498;28;20493;-77
2022/01/26 10:05:15;;;;;;;82.85;35.20;;;1.10;99.90;;;;;;5070527;28;20036;-77
2022/01/26 10:16:07;;;;;;;85.63;35.53;;;1.40;99.90;;;;;;5072629;28;19915;-77
2022/01/26 10:18:34;;;;;;;85.43;34.33;;;1.50;99.90;;;;;;5071635;28;20571;-77
2022/01/26 10:21:04;;;;;;;82.97;38.03;;;1.70;99.90;;;;;;5071384;28;20070;-77
2022/01/26 10:23:41;;;;;;;95.97;40.17;;;1.80;99.90;;;;;;5072853;28;20492;-78
2022/01/26 10:26:15;;;;;;;86.32;39.05;;;1.80;99.90;;;;;;5077599;28;20039;-78
2022/01/26 10:28:49;;;;;;;83.70;41.03;;;1.80;99.90;;;;;;5073961;28;20315;-77
2022/01/26 10:31:21;;;;;;;79.78;36.42;;;2.00;99.90;;;;;;5068587;28;20111;-78
2022/01/26 10:34:08;;;;;;;88.35;37.95;;;2.10;99.90;;;;;;5067997;28;20803;-77
2022/01/26 10:36:44;;;;;;;86.78;41.00;;;2.20;99.90;;;;;;5067900;28;20029;-78
2022/01/26 10:39:35;;;;;;;74.20;38.35;;;2.20;99.90;;;;;;5069707;28;20025;-77
2022/01/26 10:42:07;;;;;;;86.30;40.92;;;2.20;99.90;;;;;;5068279;28;20039;-78
2022/01/26 10:44:48;;;;;;;83.07;36.85;;;2.20;99.90;;;;;;5069022;28;20631;-77
2022/01/26 10:47:16;;;;;;;79.05;39.10;;;2.20;99.90;;;;;;5068814;28;20028;-77
2022/01/26 10:54:47;;;;;;;71.93;36.10;;;2.30;99.90;;;;;;5071335;28;20409;-78
2022/01/26 10:57:13;;;;;;;79.35;37.97;;;2.40;99.90;;;;;;5069847;28;20020;-77
2022/01/26 10:59:48;;;;;;;;;;;2.40;99.90;;;;;;5070206;28;20550;-78
2022/01/26 11:02:20;;;;;;;84.22;36.35;;;2.50;99.90;;;;;;5070097;28;19944;-77
2022/01/26 11:04:46;;;;;;;76.03;36.75;;;2.50;99.90;;;;;;5070775;28;20032;-78
2022/01/26 11:07:13;;;;;;;;;;;2.70;99.90;;;;;;5070970;28;20016;-78
2022/01/26 11:09:41;;;;;;;79.28;40.17;;;2.80;99.90;;;;;;5072314;28;19915;-78
2022/01/26 11:12:12;;;;;;;69.97;34.58;;;2.90;99.90;;;;;;5070202;28;20408;-78
2022/01/26 11:14:42;;;;;;;71.70;36.90;;;3.00;99.90;;;;;;5071528;28;20017;-78
2022/01/26 11:17:28;;;;;;;73.50;34.20;;;3.20;99.90;;;;;;5072439;28;20043;-77
2022/01/26 11:19:57;;;;;;;94.72;44.30;;;3.40;99.90;;;;;;5070209;28;20044;-78
2022/01/26 11:22:26;;;;;;;74.60;37.88;;;3.70;99.90;;;;;;5069831;28;20544;-77
2022/01/26 11:24:52;;;;;;;76.03;35.17;;;3.90;99.90;;;;;;5075577;28;20025;-77
2022/01/26 11:27:21;;;;;;;79.22;40.15;;;4.00;99.90;;;;;;5071327;28;20455;-79
2022/01/26 11:29:52;;;;;;;77.57;39.38;;;3.90;99.90;;;;;;5071162;28;20040;-79
2022/01/26 11:32:30;;;;;;;77.65;38.03;;;4.00;99.90;;;;;;5068007;28;20801;-77
2022/01/26 11:34:56;;;;;;;80.57;38.95;;;4.00;99.90;;;;;;5068284;28;20495;-77
2022/01/26 11:37:41;;;;;;;78.95;38.47;;;4.00;99.90;;;;;;5068362;28;20216;-78
2022/01/26 11:45:21;;;;;;;;;;;4.10;99.90;;;;;;5080801;28;20043;-79
2022/01/26 11:48:08;;;;;;;65.15;32.65;;;4.10;99.90;;;;;;5079629;28;20358;-78
2022/01/26 11:50:34;;;;;;;70.07;38.30;;;4.10;99.90;;;;;;5077308;28;20059;-80
2022/01/26 11:53:09;;;;;;;74.00;40.50;;;4.10;99.90;;;;;;5079435;28;20035;-79
2022/01/26 11:55:48;;;;;;;86.15;44.42;;;4.20;99.90;;;;;;5081134;28;20029;-79
2022/01/26 11:58:37;;;;;;;73.43;39.72;;;4.10;99.90;;;;;;5085926;28;20025;-80
2022/01/26 12:03:46;;;;;;;76.32;36.97;;;3.90;99.90;;;;;;5084277;28;20020;-80
2022/01/26 12:06:20;;;;;;;68.47;34.30;;;3.80;99.90;;;;;;5084332;28;20601;-79
2022/01/26 12:08:46;;;;;;;73.47;38.60;;;3.80;99.90;;;;;;5084232;28;20025;-79
2022/01/26 12:11:15;;;;;;;74.18;37.13;;;3.80;99.90;;;;;;5084416;28;20031;-79
2022/01/26 12:13:42;;;;;;;76.65;40.03;;;3.90;99.90;;;;;;5082417;28;20036;-80
2022/01/26 12:16:13;;;;;;;70.68;35.67;;;3.90;99.90;;;;;;5077402;28;20028;-79
2022/01/26 12:18:46;;;;;;;77.57;38.65;;;3.90;99.90;;;;;;5078941;28;20127;-79
2022/01/26 12:38:33;;;;;;;115.22;58.60;;;3.80;99.90;;;;;;5082009;28;20028;-79
2022/01/26 12:41:30;;;;;;;74.35;37.25;;;3.80;99.90;;;;;;5080379;28;20067;-80
2022/01/26 12:43:58;;;;;;;89.07;45.58;;;3.80;99.90;;;;;;5084015;28;20024;-79
2022/01/26 12:46:32;;;;;;;110.03;53.53;;;3.70;99.90;;;;;;5085534;28;20025;-79
2022/01/26 12:49:00;;;;;;;103.75;53.25;;;3.70;99.90;;;;;;5084123;28;20028;-79
2022/01/26 12:51:28;;;;;;;132.82;63.78;;;3.80;99.90;;;;;;5084757;28;20102;-80
2022/01/26 12:53:56;;;;;;;90.40;44.28;;;3.70;99.90;;;;;;5089301;28;20032;-79
2022/01/26 12:56:28;;;;;;;82.57;43.67;;;3.60;99.90;;;;;;5092297;28;20104;-80
2022/01/26 12:59:16;;;;;;;80.70;41.15;;;3.60;99.90;;;;;;5084080;28;20060;-80
2022/01/26 13:01:44;;;;;;;93.32;47.72;;;3.60;99.90;;;;;;5086153;28;20085;-80
2022/01/26 13:04:16;;;;;;;91.00;45.50;;;3.70;99.90;;;;;;5086758;28;20033;-79
2022/01/26 13:06:51;;;;;;;177.95;89.78;;;3.70;99.90;;;;;;5091002;28;20017;-79
2022/01/26 13:09:26;;;;;;;122.35;59.38;;;3.70;99.90;;;;;;5094375;28;20076;-78
2022/01/26 13:11:55;;;;;;;240.15;118.00;;;3.60;99.90;;;;;;5080794;28;20125;-79
2022/01/26 13:14:25;;;;;;;453.75;248.80;;;3.60;99.90;;;;;;5078106;28;20040;-80
2022/01/26 13:17:03;;;;;;;106.82;52.38;;;3.40;99.90;;;;;;5078093;28;20090;-79
2022/01/26 13:24:55;;;;;;;78.75;40.58;;;3.20;99.90;;;;;;5080022;28;20017;-78
2022/01/26 13:27:36;;;;;;;68.68;38.22;;;3.20;99.90;;;;;;5079715;28;20035;-78
2022/01/26 13:30:35;;;;;;;67.95;35.22;;;3.20;99.90;;;;;;5074075;28;20028;-78
2022/01/26 13:41:00;;;;;;;78.25;40.20;;;3.50;99.90;;;;;;5079313;28;20060;-81
2022/01/26 13:56:18;;;;;;;78.20;40.88;;;3.60;99.90;;;;;;5074729;28;20036;-78
2022/01/26 13:59:01;;;;;;;72.72;36.70;;;3.70;99.90;;;;;;5074837;28;20086;-79
2022/01/26 14:01:27;;;;;;;68.20;35.75;;;3.60;99.90;;;;;;5074144;28;20043;-77
2022/01/26 14:03:57;;;;;;;;;;;3.60;99.90;;;;;;5073665;28;20040;-77
2022/01/26 14:06:23;;;;;;;74.07;37.58;;;3.60;99.90;;;;;;5075185;28;19971;-78
2022/01/26 14:08:49;;;;;;;72.10;37.40;;;3.50;99.90;;;;;;5074161;28;20503;-77
2022/01/26 14:11:15;;;;;;;77.47;36.58;;;3.50;99.90;;;;;;5074075;28;20038;-79
2022/01/26 14:13:43;;;;;;;69.60;36.67;;;3.40;99.90;;;;;;5075367;28;20162;-79
2022/01/26 14:16:10;;;;;;;74.60;38.63;;;3.40;99.90;;;;;;5074780;28;20036;-79
2022/01/26 14:24:23;;;;;;;99.00;49.47;;;3.20;99.90;;;;;;5076411;28;20028;-79
2022/01/26 14:26:49;;;;;;;114.78;57.33;;;3.10;99.90;;;;;;5080105;28;20028;-78
2022/01/26 14:29:23;;;;;;;103.30;53.42;;;3.00;99.90;;;;;;5074982;28;20044;-79
2022/01/26 14:32:07;;;;;;;86.38;45.15;;;3.00;99.90;;;;;;5073616;28;20052;-79
2022/01/26 14:56:14;;;;;;;90.63;42.55;;;2.30;99.90;;;;;;5073946;28;20420;-79
2022/01/26 15:41:17;;;;;;;129.10;58.53;;;0.90;99.90;;;;;;5078670;28;20048;-79
2022/01/26 16:07:46;;;;;;;161.50;74.00;;;-0.30;99.90;;;;;;5069149;28;20440;-78
2022/01/26 16:16:33;;;;;;;253.23;108.88;;;-0.40;99.90;;;;;;5067041;28;20032;-78
2022/01/26 18:03:58;;;;;;;145.00;67.40;;;-2.00;99.90;;;;;;5071386;28;20047;-77
2022/01/26 18:51:37;;;;;;;187.52;90.95;;;-1.60;99.90;;;;;;5068182;28;20462;-77
2022/01/26 18:54:04;;;;;;;161.45;82.60;;;-1.60;99.90;;;;;;5068874;28;20568;-79
2022/01/26 18:56:30;;;;;;;177.10;91.47;;;-1.60;99.90;;;;;;5070200;28;20086;-78
2022/01/26 18:58:56;;;;;;;187.65;91.68;;;-1.60;99.90;;;;;;5068103;28;20119;-77
2022/01/26 19:01:22;;;;;;;;;;;-1.60;99.90;;;;;;5067120;28;20577;-77
2022/01/26 19:03:48;;;;;;;194.73;87.32;;;-1.60;99.90;;;;;;5067584;28;20295;-78
2022/01/26 19:06:13;;;;;;;;;;;-1.70;99.90;;;;;;5071079;28;20060;-78
2022/01/26 19:08:41;;;;;;;168.20;75.68;;;-1.70;99.90;;;;;;5070114;28;19943;-78
2022/01/26 19:11:11;;;;;;;191.85;88.03;;;-1.70;99.90;;;;;;5069448;28;20029;-77
2022/01/26 19:13:38;;;;;;;192.95;92.10;;;-1.80;99.90;;;;;;5073616;28;20416;-77
2022/01/26 19:16:12;;;;;;;201.73;89.72;;;-1.80;99.90;;;;;;5072056;28;20036;-77
2022/01/26 19:18:54;;;;;;;170.80;76.57;;;-1.90;99.90;;;;;;5093643;28;20016;-80
2022/01/26 19:21:37;;;;;;;174.55;75.47;;;-1.90;99.90;;;;;;5095166;28;20008;-80
2022/01/26 19:26:35;;;;;;;;;;;-2.00;99.90;;;;;;5065734;28;20032;-80
2022/01/26 19:29:13;;;;;;;145.65;64.47;;;-2.10;99.90;;;;;;5063413;28;19908;-80
2022/01/26 19:53:01;;;;;;;;;;;-2.00;99.90;;;;;;5065234;28;19912;-81
2022/01/26 19:55:27;;;;;;;247.82;96.93;;;-2.10;99.90;;;;;;5063593;28;19905;-80
2022/01/26 19:57:53;;;;;;;;;;;-2.10;99.90;;;;;;5064534;28;20500;-80
2022/01/26 20:00:19;;;;;;;427.83;177.00;;;-2.10;99.90;;;;;;5064167;28;20007;-80
2022/01/26 20:02:46;;;;;;;255.48;96.57;;;-2.00;99.90;;;;;;5064223;28;20038;-80
2022/01/26 20:05:16;;;;;;;166.20;74.82;;;-2.10;99.90;;;;;;5063320;28;20025;-80
2022/01/26 20:07:45;;;;;;;150.45;67.45;;;-2.10;99.90;;;;;;5063352;28;20029;-80
2022/01/26 20:10:13;;;;;;;170.65;77.50;;;-2.00;99.90;;;;;;5063630;28;20100;-79